Time;durP1;ratioP1;P1;durP2;ratioP2;P2;SDS_P1;SDS_P2;PMS_P1;PMS_P2;Temp;Humidity;BMP_temperature;BMP_pressure;BME280_temperature;BME280_humidity;BME280_pressure;Samples;Min_cycle;Max_cycle;Signal;HPM_P1;HPM_P2
2023/01/05 00:01:13;;;;;;;0.73;0.40;;;17.50;51.40;;;;;;4827610;29;20245;-85
2023/01/05 00:03:39;;;;;;;0.52;0.40;;;17.50;51.40;;;;;;4853635;29;20655;-86
2023/01/05 00:06:17;;;;;;;0.50;0.30;;;17.50;51.40;;;;;;4863658;29;20212;-87
2023/01/05 00:08:42;;;;;;;0.43;0.40;;;17.50;51.40;;;;;;4865094;29;20186;-86
2023/01/05 00:22:33;;;;;;;0.85;0.32;;;17.40;51.40;;;;;;4820773;29;20191;-85
2023/01/05 00:25:09;;;;;;;0.30;0.30;;;17.50;51.50;;;;;;4817473;29;20569;-85
2023/01/05 00:27:43;;;;;;;0.43;0.30;;;17.40;51.40;;;;;;4819688;29;20226;-85
2023/01/05 00:30:14;;;;;;;0.85;0.38;;;17.40;51.50;;;;;;4845995;29;20260;-86
2023/01/05 00:32:43;;;;;;;0.40;0.30;;;17.40;51.50;;;;;;4822981;29;20194;-86
2023/01/05 00:35:13;;;;;;;0.32;0.32;;;17.40;51.50;;;;;;4806076;29;20187;-85
2023/01/05 00:37:45;;;;;;;0.50;0.40;;;17.40;51.60;;;;;;4821286;29;20195;-85
2023/01/05 00:40:14;;;;;;;0.68;0.40;;;17.40;51.50;;;;;;4769550;30;20702;-85
2023/01/05 00:42:39;;;;;;;1.38;0.40;;;17.40;51.50;;;;;;4766472;30;20251;-86
2023/01/05 00:45:10;;;;;;;0.40;0.38;;;17.40;51.50;;;;;;4766839;30;20657;-86
2023/01/05 00:47:44;;;;;;;0.52;0.50;;;17.40;51.50;;;;;;4751730;30;20251;-85
2023/01/05 00:50:12;;;;;;;0.50;0.25;;;17.40;51.50;;;;;;4751847;30;20205;-86
2023/01/05 00:52:37;;;;;;;0.40;0.40;;;17.40;51.50;;;;;;4751811;30;20266;-86
2023/01/05 00:55:14;;;;;;;0.40;0.30;;;17.30;51.50;;;;;;4757038;30;20236;-85
2023/01/05 00:57:47;;;;;;;0.35;0.35;;;17.30;51.50;;;;;;4763109;30;20196;-86
2023/01/05 01:00:18;;;;;;;0.55;0.40;;;17.40;51.60;;;;;;4776703;30;20215;-86
2023/01/05 01:02:43;;;;;;;0.55;0.40;;;17.40;51.50;;;;;;4780317;29;20223;-85
2023/01/05 01:05:11;;;;;;;0.30;0.30;;;17.40;51.50;;;;;;4791369;29;20193;-86
2023/01/05 01:07:44;;;;;;;0.50;0.40;;;17.40;51.60;;;;;;4789750;29;20202;-86
2023/01/05 01:10:17;;;;;;;0.45;0.40;;;17.40;51.50;;;;;;4808449;29;20675;-86
2023/01/05 01:12:47;;;;;;;0.65;0.30;;;17.40;51.50;;;;;;4826005;29;20666;-86
2023/01/05 01:15:17;;;;;;;0.40;0.30;;;17.40;51.60;;;;;;4825939;29;20307;-86
2023/01/05 01:17:48;;;;;;;0.47;0.30;;;17.40;51.60;;;;;;4807950;29;20193;-86
2023/01/05 01:20:20;;;;;;;1.25;0.50;;;17.30;51.60;;;;;;4808065;29;20182;-85
2023/01/05 01:22:59;;;;;;;0.73;0.30;;;17.30;51.50;;;;;;4789905;29;20194;-86
2023/01/05 01:25:27;;;;;;;0.30;0.30;;;17.30;51.60;;;;;;4804717;29;20650;-85
2023/01/05 01:27:53;;;;;;;0.45;0.35;;;17.30;51.60;;;;;;4774772;29;20245;-86
2023/01/05 01:30:24;;;;;;;0.20;0.20;;;17.30;51.60;;;;;;4789701;29;20614;-85
2023/01/05 01:32:58;;;;;;;0.20;0.20;;;17.30;51.60;;;;;;4760561;29;20282;-85
2023/01/05 01:35:24;;;;;;;0.50;0.40;;;17.30;51.60;;;;;;4789614;29;20218;-86
2023/01/05 01:37:55;;;;;;;1.38;0.60;;;17.30;51.60;;;;;;4800144;29;20197;-85
2023/01/05 01:40:25;;;;;;;0.40;0.30;;;17.30;51.60;;;;;;4824036;29;20194;-85
2023/01/05 01:42:53;;;;;;;0.70;0.40;;;17.30;51.60;;;;;;4856230;29;20243;-85
2023/01/05 01:45:28;;;;;;;0.40;0.40;;;17.30;51.70;;;;;;4843982;29;20279;-85
2023/01/05 01:47:57;;;;;;;0.75;0.43;;;17.30;51.60;;;;;;4824435;29;20303;-85
2023/01/05 01:50:30;;;;;;;1.02;0.32;;;17.30;51.70;;;;;;4809340;29;20702;-85
2023/01/05 01:53:05;;;;;;;0.30;0.20;;;17.30;51.60;;;;;;4811127;29;20190;-85
2023/01/05 01:55:36;;;;;;;1.35;0.30;;;17.30;51.60;;;;;;4816508;29;20229;-86
2023/01/05 01:58:06;;;;;;;1.55;0.40;;;17.30;51.70;;;;;;4847200;29;20527;-85
2023/01/05 02:00:45;;;;;;;1.33;0.50;;;17.30;51.90;;;;;;4871226;29;20642;-86
2023/01/05 02:03:10;;;;;;;0.35;0.30;;;17.30;51.70;;;;;;4843660;29;20191;-85
2023/01/05 02:05:38;;;;;;;0.50;0.50;;;17.20;51.70;;;;;;4843864;29;20193;-85
2023/01/05 02:08:08;;;;;;;0.45;0.40;;;17.30;51.70;;;;;;4859073;29;20219;-86
2023/01/05 02:10:57;;;;;;;0.45;0.30;;;17.20;51.70;;;;;;4888609;29;20195;-86
2023/01/05 02:13:56;;;;;;;0.57;0.40;;;17.30;51.70;;;;;;4867854;29;20271;-85
2023/01/05 02:16:56;;;;;;;0.65;0.40;;;17.30;51.70;;;;;;4877438;29;20640;-85
2023/01/05 02:19:50;;;;;;;0.55;0.40;;;17.20;51.70;;;;;;4864957;29;20188;-85
2023/01/05 02:22:56;;;;;;;0.40;0.28;;;17.30;51.60;;;;;;4858836;29;20282;-85
2023/01/05 02:25:58;;;;;;;0.30;0.30;;;17.20;51.70;;;;;;4858582;29;20202;-86
2023/01/05 02:28:44;;;;;;;0.45;0.40;;;17.30;51.70;;;;;;4889755;29;20642;-86
2023/01/05 02:31:27;;;;;;;0.77;0.32;;;17.20;51.50;;;;;;4883377;29;20194;-85
2023/01/05 02:34:02;;;;;;;0.40;0.40;;;17.30;51.60;;;;;;4890946;29;20181;-86
2023/01/05 02:36:42;;;;;;;0.40;0.40;;;17.20;51.50;;;;;;4922248;29;20185;-86
2023/01/05 02:39:14;;;;;;;0.40;0.40;;;17.30;51.60;;;;;;4899622;29;20187;-86
2023/01/05 02:41:53;;;;;;;0.60;0.30;;;17.20;51.60;;;;;;4868538;29;20184;-86
2023/01/05 02:44:18;;;;;;;0.30;0.30;;;17.20;51.60;;;;;;4865307;29;20188;-84
2023/01/05 02:47:05;;;;;;;0.60;0.50;;;17.30;51.70;;;;;;4854602;29;20593;-86
2023/01/05 02:49:37;;;;;;;1.08;0.57;;;17.20;51.70;;;;;;4886699;29;20187;-86
2023/01/05 02:52:15;;;;;;;0.45;0.30;;;17.20;51.70;;;;;;4868654;29;20183;-86
2023/01/05 02:54:48;;;;;;;0.30;0.30;;;17.20;51.70;;;;;;4887854;29;20321;-86
2023/01/05 02:57:17;;;;;;;0.47;0.40;;;17.20;51.70;;;;;;4864982;29;20240;-85
2023/01/05 02:59:48;;;;;;;0.60;0.32;;;17.30;51.60;;;;;;4880453;29;20313;-86
2023/01/05 03:02:22;;;;;;;0.43;0.30;;;17.20;51.60;;;;;;4879996;29;20202;-85
2023/01/05 03:05:13;;;;;;;0.68;0.40;;;17.30;51.50;;;;;;4879699;29;20215;-85
2023/01/05 03:07:48;;;;;;;1.23;0.30;;;17.20;51.50;;;;;;4889235;29;20222;-85
2023/01/05 03:15:42;;;;;;;0.60;0.40;;;17.20;51.60;;;;;;4870887;29;20727;-86
2023/01/05 03:18:10;;;;;;;0.77;0.40;;;17.20;51.60;;;;;;4865018;29;20191;-86
2023/01/05 03:20:48;;;;;;;0.30;0.30;;;17.20;51.60;;;;;;4864961;29;20190;-86
2023/01/05 03:37:23;;;;;;;0.40;0.40;;;17.20;51.70;;;;;;4879043;29;20184;-85
2023/01/05 03:39:54;;;;;;;0.98;0.50;;;17.20;51.70;;;;;;4864062;29;20207;-85
2023/01/05 03:42:24;;;;;;;0.52;0.40;;;17.20;51.60;;;;;;4880145;29;20279;-86
2023/01/05 03:44:54;;;;;;;0.55;0.40;;;17.20;51.70;;;;;;4849261;29;20223;-86
2023/01/05 03:47:32;;;;;;;0.43;0.43;;;17.10;51.50;;;;;;4852029;29;20717;-86
2023/01/05 03:50:09;;;;;;;0.30;0.30;;;17.20;51.60;;;;;;4864538;29;20219;-86
2023/01/05 03:52:37;;;;;;;0.60;0.40;;;17.20;51.60;;;;;;4850015;29;20286;-86
2023/01/05 03:55:06;;;;;;;0.77;0.52;;;17.20;51.70;;;;;;4865444;29;20232;-86
2023/01/05 03:57:32;;;;;;;0.75;0.43;;;17.20;51.70;;;;;;4902482;29;20270;-85
2023/01/05 04:00:04;;;;;;;0.65;0.50;;;17.20;51.70;;;;;;4904775;29;20687;-85
2023/01/05 04:02:32;;;;;;;0.32;0.30;;;17.10;51.70;;;;;;4902403;29;20238;-86
2023/01/05 04:05:00;;;;;;;0.47;0.30;;;17.10;51.70;;;;;;4910890;29;20198;-86
2023/01/05 04:07:27;;;;;;;0.88;0.52;;;17.10;51.70;;;;;;4901681;29;20693;-86
2023/01/05 04:09:52;;;;;;;0.73;0.57;;;17.10;51.70;;;;;;4901299;29;20287;-86
2023/01/05 04:12:23;;;;;;;0.77;0.47;;;17.10;51.70;;;;;;4901400;29;20249;-86
2023/01/05 04:14:52;;;;;;;0.50;0.40;;;17.10;51.70;;;;;;4901931;29;20186;-86
2023/01/05 04:17:19;;;;;;;0.30;0.30;;;17.10;51.80;;;;;;4901609;29;20182;-86
2023/01/05 04:19:44;;;;;;;0.50;0.40;;;17.20;51.70;;;;;;4863819;29;20236;-86
2023/01/05 04:22:10;;;;;;;1.08;0.47;;;17.10;51.70;;;;;;4858353;29;20191;-86
2023/01/05 04:24:37;;;;;;;0.63;0.50;;;17.10;51.70;;;;;;4882561;29;20198;-86
2023/01/05 04:27:10;;;;;;;0.40;0.40;;;17.00;51.60;;;;;;4882173;29;20235;-87
2023/01/05 04:29:36;;;;;;;0.35;0.30;;;17.20;51.70;;;;;;4898035;29;20176;-85
2023/01/05 04:32:01;;;;;;;0.63;0.40;;;17.10;51.70;;;;;;4900906;29;20767;-86
2023/01/05 04:34:30;;;;;;;1.67;0.43;;;17.10;51.70;;;;;;4901692;29;20194;-86
2023/01/05 04:36:56;;;;;;;0.73;0.40;;;17.10;51.70;;;;;;4900936;29;20542;-86
2023/01/05 04:39:22;;;;;;;0.60;0.35;;;17.10;51.70;;;;;;4900324;29;20299;-86
2023/01/05 04:41:53;;;;;;;0.57;0.38;;;17.10;51.70;;;;;;4901118;29;20195;-86
2023/01/05 04:44:19;;;;;;;0.47;0.40;;;17.10;51.80;;;;;;4901029;29;20175;-86
2023/01/05 04:46:49;;;;;;;0.47;0.38;;;17.10;51.80;;;;;;4863165;29;20220;-86
2023/01/05 04:49:17;;;;;;;0.90;0.50;;;17.10;51.70;;;;;;4859993;29;20188;-86
2023/01/05 04:51:50;;;;;;;0.60;0.50;;;17.10;51.80;;;;;;4826108;29;20185;-86
2023/01/05 04:54:16;;;;;;;0.63;0.30;;;17.10;51.70;;;;;;4808028;29;20316;-86
2023/01/05 04:56:41;;;;;;;1.13;0.50;;;17.10;51.70;;;;;;4823594;29;20277;-85
2023/01/05 04:59:08;;;;;;;0.50;0.38;;;17.10;51.70;;;;;;4823687;29;20193;-86
2023/01/05 05:01:36;;;;;;;0.60;0.50;;;17.10;51.70;;;;;;4815395;29;20232;-86
2023/01/05 05:04:03;;;;;;;0.73;0.40;;;17.10;51.70;;;;;;4820757;29;20196;-86
2023/01/05 05:06:29;;;;;;;0.40;0.40;;;17.10;51.60;;;;;;4810854;29;20308;-86
2023/01/05 05:08:55;;;;;;;0.20;0.20;;;17.20;51.70;;;;;;4826455;29;20245;-86
2023/01/05 05:11:22;;;;;;;0.50;0.43;;;17.10;51.70;;;;;;4811329;29;20181;-86
2023/01/05 05:13:54;;;;;;;0.60;0.40;;;17.10;51.70;;;;;;4810367;29;20185;-85
2023/01/05 05:16:22;;;;;;;0.55;0.50;;;17.10;51.60;;;;;;4804877;29;20559;-86
2023/01/05 05:18:48;;;;;;;0.80;0.60;;;17.10;51.60;;;;;;4841773;29;20279;-86
2023/01/05 05:21:15;;;;;;;0.47;0.40;;;17.10;51.60;;;;;;4882951;29;20265;-86
2023/01/05 05:23:49;;;;;;;0.47;0.40;;;17.10;51.70;;;;;;4884714;29;20194;-85
2023/01/05 05:26:15;;;;;;;0.75;0.50;;;17.10;51.70;;;;;;4884738;29;20203;-86
2023/01/05 05:28:51;;;;;;;0.55;0.40;;;17.10;51.70;;;;;;4889635;29;20270;-86
2023/01/05 05:31:23;;;;;;;0.43;0.40;;;17.10;51.70;;;;;;4919135;29;20170;-86
2023/01/05 05:33:59;;;;;;;0.32;0.32;;;17.00;51.60;;;;;;4896847;29;20187;-86
2023/01/05 05:36:29;;;;;;;0.32;0.32;;;17.00;51.70;;;;;;4881971;29;20183;-86
2023/01/05 05:39:01;;;;;;;0.30;0.30;;;17.10;51.80;;;;;;4874716;29;20249;-85
2023/01/05 05:41:27;;;;;;;0.45;0.40;;;17.00;51.70;;;;;;4875762;29;20232;-85
2023/01/05 05:44:01;;;;;;;0.50;0.40;;;17.00;51.70;;;;;;4859468;29;20197;-85
2023/01/05 05:46:30;;;;;;;0.40;0.40;;;17.00;51.70;;;;;;4800683;29;20223;-86
2023/01/05 05:48:59;;;;;;;0.65;0.55;;;17.00;51.70;;;;;;4787096;30;20192;-86
2023/01/05 05:51:25;;;;;;;0.32;0.32;;;17.00;51.70;;;;;;4801358;29;20249;-85
2023/01/05 05:53:57;;;;;;;0.80;0.50;;;17.10;51.70;;;;;;4765459;30;20228;-86
2023/01/05 05:56:25;;;;;;;0.50;0.40;;;17.00;51.70;;;;;;4765137;30;20193;-86
2023/01/05 05:58:53;;;;;;;0.32;0.30;;;17.00;51.60;;;;;;4766321;30;20680;-86
2023/01/05 06:01:23;;;;;;;0.47;0.40;;;17.00;51.70;;;;;;4784383;29;20196;-86
2023/01/05 06:03:48;;;;;;;0.50;0.47;;;17.00;51.70;;;;;;4772248;30;20188;-86
2023/01/05 06:06:19;;;;;;;1.02;0.40;;;17.00;51.70;;;;;;4772135;30;20215;-85
2023/01/05 06:08:47;;;;;;;0.50;0.50;;;17.00;51.70;;;;;;4772160;30;20200;-86
2023/01/05 06:11:13;;;;;;;0.65;0.50;;;17.00;51.70;;;;;;4791887;29;20282;-85
2023/01/05 06:13:44;;;;;;;0.75;0.30;;;17.00;51.70;;;;;;4814401;29;20185;-85
2023/01/05 06:16:11;;;;;;;0.47;0.40;;;17.00;51.70;;;;;;4815278;29;20193;-85
2023/01/05 06:18:38;;;;;;;0.50;0.50;;;17.00;51.70;;;;;;4814115;29;20272;-85
2023/01/05 06:21:05;;;;;;;0.30;0.30;;;17.10;51.80;;;;;;4814281;29;20657;-86
2023/01/05 06:23:30;;;;;;;0.65;0.50;;;17.00;51.60;;;;;;4814545;29;20675;-85
2023/01/05 06:26:01;;;;;;;0.50;0.50;;;17.00;51.70;;;;;;4848941;29;20192;-85
2023/01/05 06:28:30;;;;;;;0.60;0.43;;;17.00;51.70;;;;;;4841116;29;20189;-85
2023/01/05 06:31:00;;;;;;;0.30;0.30;;;17.00;51.60;;;;;;4881899;29;20215;-85
2023/01/05 06:33:30;;;;;;;0.57;0.43;;;17.00;51.70;;;;;;4868976;29;20686;-85
2023/01/05 06:35:57;;;;;;;0.70;0.50;;;17.00;51.70;;;;;;4884481;29;20239;-85
2023/01/05 06:38:26;;;;;;;0.55;0.50;;;17.00;51.70;;;;;;4868873;29;20285;-85
2023/01/05 06:40:53;;;;;;;0.52;0.40;;;17.00;51.70;;;;;;4904275;29;20189;-85
2023/01/05 06:43:23;;;;;;;0.55;0.40;;;17.00;51.70;;;;;;4909880;29;20189;-85
2023/01/05 06:45:52;;;;;;;0.40;0.40;;;17.00;51.70;;;;;;4909303;29;20193;-85
2023/01/05 06:48:18;;;;;;;0.40;0.40;;;17.00;51.80;;;;;;4925015;29;20189;-85
2023/01/05 06:54:08;;;;;;;0.65;0.50;;;17.00;51.80;;;;;;4956712;29;20263;-85
2023/01/05 06:56:48;;;;;;;0.32;0.30;;;16.90;51.70;;;;;;4924761;29;20268;-84
2023/01/05 06:59:17;;;;;;;0.50;0.50;;;17.00;51.70;;;;;;4939212;28;20188;-84
2023/01/05 07:01:43;;;;;;;0.52;0.50;;;17.00;51.70;;;;;;4977455;28;20191;-85
2023/01/05 07:04:11;;;;;;;0.80;0.32;;;17.00;51.70;;;;;;4945493;28;20161;-84
2023/01/05 07:06:47;;;;;;;0.35;0.35;;;17.00;51.70;;;;;;4947277;28;20205;-84
2023/01/05 07:09:12;;;;;;;0.40;0.35;;;17.00;51.70;;;;;;4947369;28;20172;-84
2023/01/05 07:11:41;;;;;;;0.40;0.40;;;17.00;51.70;;;;;;4960603;28;20153;-84
2023/01/05 07:14:07;;;;;;;0.40;0.40;;;17.00;51.80;;;;;;4945385;28;20235;-85
2023/01/05 07:16:36;;;;;;;0.70;0.70;;;16.90;51.80;;;;;;4945801;28;20161;-85
2023/01/05 07:19:02;;;;;;;0.45;0.45;;;17.00;51.80;;;;;;4905449;29;20186;-85
2023/01/05 07:21:27;;;;;;;0.32;0.32;;;17.00;51.80;;;;;;4889203;29;20756;-85
2023/01/05 07:23:54;;;;;;;0.77;0.50;;;17.00;51.70;;;;;;4894459;29;20190;-85
2023/01/05 07:26:20;;;;;;;0.70;0.50;;;17.10;52.40;;;;;;4909243;29;20202;-85
2023/01/05 07:28:48;;;;;;;0.55;0.43;;;17.00;51.50;;;;;;4893883;29;20183;-84
2023/01/05 07:31:15;;;;;;;0.60;0.60;;;17.10;51.20;;;;;;4910158;29;20171;-84
2023/01/05 07:33:42;;;;;;;1.00;0.80;;;17.10;50.90;;;;;;4890251;29;20745;-84
2023/01/05 07:36:08;;;;;;;0.50;0.50;;;17.20;50.20;;;;;;4901983;29;20217;-84
2023/01/05 07:38:34;;;;;;;1.08;0.60;;;17.30;50.40;;;;;;4902588;29;20249;-85
2023/01/05 07:41:02;;;;;;;0.40;0.40;;;17.30;49.80;;;;;;4886379;29;20617;-85
2023/01/05 07:43:28;;;;;;;0.50;0.43;;;17.30;50.20;;;;;;4887364;29;20175;-85
2023/01/05 07:46:01;;;;;;;0.50;0.40;;;17.30;49.80;;;;;;4888026;29;20162;-85
2023/01/05 07:48:28;;;;;;;0.65;0.60;;;17.40;49.60;;;;;;4917495;29;20273;-85
2023/01/05 07:51:03;;;;;;;0.73;0.50;;;17.40;49.40;;;;;;4945153;28;20192;-85
2023/01/05 07:53:33;;;;;;;0.40;0.40;;;17.40;49.60;;;;;;4923779;29;20687;-85
2023/01/05 07:56:00;;;;;;;0.60;0.55;;;17.50;50.00;;;;;;4923599;29;20707;-84
2023/01/05 07:58:26;;;;;;;0.50;0.50;;;17.50;49.80;;;;;;4901595;29;20207;-84
2023/01/05 08:00:57;;;;;;;0.95;0.50;;;17.50;49.50;;;;;;4902467;29;20253;-85
2023/01/05 08:03:23;;;;;;;0.52;0.52;;;17.50;49.70;;;;;;4900603;29;20650;-85
2023/01/05 08:05:53;;;;;;;0.77;0.50;;;17.50;49.40;;;;;;4880834;29;20211;-85
2023/01/05 08:08:20;;;;;;;0.60;0.50;;;17.50;49.40;;;;;;4883356;29;20211;-85
2023/01/05 08:10:47;;;;;;;0.70;0.63;;;17.60;49.40;;;;;;4882102;29;20192;-85
2023/01/05 08:15:50;;;;;;;0.70;0.50;;;17.60;49.40;;;;;;4881727;29;20272;-85
2023/01/05 08:18:18;;;;;;;0.70;0.40;;;17.60;49.50;;;;;;4881623;29;20219;-84
2023/01/05 08:21:03;;;;;;;1.60;0.60;;;17.60;49.40;;;;;;4882600;29;20208;-84
2023/01/05 08:23:31;;;;;;;1.52;0.60;;;17.60;49.30;;;;;;4884179;29;20188;-84
2023/01/05 08:26:04;;;;;;;1.17;0.50;;;17.60;49.10;;;;;;4901153;29;20254;-84
2023/01/05 08:28:30;;;;;;;1.17;0.60;;;17.60;49.40;;;;;;4911885;28;20219;-83
2023/01/05 08:31:13;;;;;;;0.77;0.57;;;17.60;49.30;;;;;;4930744;28;20666;-83
2023/01/05 08:33:43;;;;;;;2.95;0.60;;;17.70;49.20;;;;;;4947476;28;20201;-85
2023/01/05 08:36:18;;;;;;;5.38;0.50;;;17.70;49.30;;;;;;4936217;28;20188;-84
2023/01/05 08:38:47;;;;;;;5.32;0.60;;;17.70;49.00;;;;;;4929632;29;20180;-84
2023/01/05 08:41:16;;;;;;;7.28;0.90;;;17.70;49.00;;;;;;4929083;29;20272;-83
2023/01/05 08:43:42;;;;;;;5.47;0.85;;;17.70;49.30;;;;;;4908912;29;20214;-83
2023/01/05 08:46:09;;;;;;;4.63;0.70;;;17.70;49.30;;;;;;4908641;29;20189;-82
2023/01/05 08:48:40;;;;;;;5.18;0.70;;;17.70;48.30;;;;;;4906144;29;20206;-83
2023/01/05 08:51:40;;;;;;;2.25;0.70;;;17.70;48.90;;;;;;4880539;29;20177;-82
2023/01/05 08:54:33;;;;;;;6.05;0.80;;;17.70;49.20;;;;;;4778695;29;20264;-83
2023/01/05 08:57:10;;;;;;;3.97;0.60;;;17.70;48.90;;;;;;4794061;29;20237;-83
2023/01/05 08:59:47;;;;;;;7.57;0.95;;;17.70;48.90;;;;;;4805435;29;20277;-83
2023/01/05 09:02:13;;;;;;;5.28;0.73;;;17.70;49.20;;;;;;4789801;29;20259;-82
2023/01/05 09:04:58;;;;;;;6.13;0.80;;;17.70;49.30;;;;;;4775515;30;20293;-83
2023/01/05 09:08:18;;;;;;;2.67;0.77;;;17.70;49.10;;;;;;4777110;30;20222;-83
2023/01/05 09:11:17;;;;;;;;;;;;;;;;;;;;;
2023/01/05 09:14:02;;;;;;;7.50;0.75;;;17.80;49.60;;;;;;4765980;30;20263;-84
2023/01/05 09:16:56;;;;;;;1.42;0.60;;;17.80;50.20;;;;;;4776502;30;20180;-82
2023/01/05 09:19:33;;;;;;;9.98;0.70;;;17.80;49.00;;;;;;4831881;29;20189;-83
2023/01/05 09:22:06;;;;;;;4.57;0.95;;;17.90;49.80;;;;;;4832753;29;20203;-82
2023/01/05 09:25:02;;;;;;;4.78;0.70;;;17.90;50.00;;;;;;4849597;29;20202;-83
2023/01/05 09:27:33;;;;;;;3.45;0.80;;;18.00;50.00;;;;;;4780706;29;20226;-83
2023/01/05 09:30:04;;;;;;;1.80;0.60;;;18.00;49.00;;;;;;4798082;29;20203;-83
2023/01/05 09:32:37;;;;;;;1.15;0.57;;;18.00;48.40;;;;;;4781791;29;20254;-83
2023/01/05 09:35:06;;;;;;;2.95;0.85;;;17.90;49.40;;;;;;4785327;29;20274;-85
2023/01/05 09:37:35;;;;;;;1.30;0.68;;;18.00;49.50;;;;;;4799992;29;20281;-82
2023/01/05 09:40:10;;;;;;;7.32;1.20;;;18.00;49.30;;;;;;4779256;30;20316;-84
2023/01/05 09:42:40;;;;;;;1.67;0.63;;;17.90;48.60;;;;;;4780655;30;20291;-83
2023/01/05 09:45:25;;;;;;;4.57;0.82;;;18.00;49.20;;;;;;4765760;30;20199;-84
2023/01/05 09:48:01;;;;;;;4.20;0.82;;;18.00;48.90;;;;;;4831259;29;20332;-84
2023/01/05 09:50:32;;;;;;;2.72;0.60;;;18.00;49.20;;;;;;4847231;29;20189;-83
2023/01/05 09:53:15;;;;;;;4.30;0.75;;;18.00;50.20;;;;;;4849452;29;20192;-84
2023/01/05 09:56:10;;;;;;;3.03;0.88;;;18.00;49.60;;;;;;4852208;29;20227;-83
2023/01/05 09:58:59;;;;;;;3.47;0.80;;;18.00;49.80;;;;;;4874311;29;20678;-84
2023/01/05 10:01:45;;;;;;;8.63;1.05;;;17.90;49.80;;;;;;4889798;29;20211;-83
2023/01/05 10:04:31;;;;;;;3.30;0.60;;;18.00;49.10;;;;;;4919520;29;20249;-83
2023/01/05 10:07:10;;;;;;;4.53;0.50;;;18.00;49.80;;;;;;4899319;29;20202;-83
2023/01/05 10:09:40;;;;;;;2.22;0.70;;;18.00;49.70;;;;;;4862873;29;20189;-84
2023/01/05 10:15:53;;;;;;;;;;;;;;;;;;;;;
2023/01/05 10:18:36;;;;;;;1.98;0.77;;;18.10;49.50;;;;;;4793907;30;20286;-83
2023/01/05 10:21:32;;;;;;;1.13;0.60;;;18.10;49.20;;;;;;4779441;30;20199;-85
2023/01/05 10:24:05;;;;;;;4.07;0.73;;;18.10;49.30;;;;;;4781173;30;20222;-83
2023/01/05 10:26:43;;;;;;;1.52;0.90;;;18.10;49.30;;;;;;4743832;30;20216;-84
2023/01/05 10:29:34;;;;;;;1.63;0.75;;;18.10;49.80;;;;;;4740372;30;20193;-83
2023/01/05 10:32:25;;;;;;;5.13;0.75;;;18.00;49.60;;;;;;4723721;30;20631;-84
2023/01/05 10:34:57;;;;;;;2.78;0.70;;;18.10;50.00;;;;;;4734952;30;20683;-83
2023/01/05 10:37:44;;;;;;;3.72;0.75;;;18.10;49.20;;;;;;4745102;30;20204;-83
2023/01/05 10:40:40;;;;;;;1.83;0.57;;;18.10;49.70;;;;;;4776582;30;20192;-84
2023/01/05 10:43:54;;;;;;;2.70;0.70;;;18.10;50.00;;;;;;4751689;30;20192;-84
2023/01/05 10:46:29;;;;;;;1.63;0.70;;;18.10;49.70;;;;;;4776420;30;20215;-84
2023/01/05 10:49:04;;;;;;;1.58;0.70;;;18.10;49.90;;;;;;4777018;30;20221;-84
2023/01/05 10:51:55;;;;;;;4.75;0.60;;;18.10;50.30;;;;;;4715628;30;20227;-84
2023/01/05 10:54:43;;;;;;;2.60;0.52;;;18.10;49.90;;;;;;4717091;30;20283;-83
2023/01/05 10:57:43;;;;;;;1.30;0.68;;;18.10;49.80;;;;;;4672212;30;20200;-84
2023/01/05 11:00:39;;;;;;;6.43;0.70;;;18.10;48.90;;;;;;4689247;30;20195;-84
2023/01/05 11:03:30;;;;;;;3.88;0.65;;;18.10;49.40;;;;;;4652012;30;20208;-84
2023/01/05 11:06:07;;;;;;;1.15;0.82;;;18.10;48.90;;;;;;4668044;30;20191;-84
2023/01/05 11:08:45;;;;;;;5.15;0.88;;;18.10;49.30;;;;;;4686230;30;20214;-85
2023/01/05 11:12:00;;;;;;;5.18;0.70;;;18.10;48.90;;;;;;4685231;30;20680;-84
2023/01/05 11:14:59;;;;;;;2.33;0.60;;;18.20;49.80;;;;;;4703314;30;20223;-84
2023/01/05 11:17:37;;;;;;;4.47;0.73;;;18.20;49.10;;;;;;4677579;30;20199;-84
2023/01/05 11:21:17;;;;;;;3.22;1.10;;;18.10;49.50;;;;;;4678253;30;20257;-85
2023/01/05 11:23:49;;;;;;;6.65;0.88;;;18.10;50.00;;;;;;4622862;31;20219;-85
2023/01/05 11:26:39;;;;;;;6.47;1.05;;;18.10;49.30;;;;;;4625349;30;20197;-87
2023/01/05 11:29:39;;;;;;;3.50;0.80;;;18.10;49.90;;;;;;4638909;31;20189;-87
2023/01/05 11:32:11;;;;;;;6.20;0.57;;;18.10;50.00;;;;;;4639636;30;20208;-87
2023/01/05 11:34:47;;;;;;;3.63;0.50;;;18.10;50.00;;;;;;4692640;30;20248;-87
2023/01/05 11:40:35;;;;;;;2.67;0.75;;;18.10;50.30;;;;;;4717258;30;20636;-87
2023/01/05 11:43:11;;;;;;;4.38;0.70;;;18.10;50.00;;;;;;4702797;30;20244;-87
2023/01/05 11:45:44;;;;;;;5.32;0.80;;;18.10;49.80;;;;;;4702462;30;20191;-87
2023/01/05 11:51:48;;;;;;;7.18;1.10;;;18.20;49.70;;;;;;4704464;30;20181;-85
2023/01/05 11:54:34;;;;;;;1.30;0.77;;;18.20;49.50;;;;;;4668831;30;20211;-85
2023/01/05 11:57:28;;;;;;;2.65;0.82;;;18.20;49.10;;;;;;4657493;30;20207;-86
2023/01/05 12:00:40;;;;;;;5.53;0.73;;;18.20;49.20;;;;;;4643414;30;20323;-85
2023/01/05 12:03:30;;;;;;;3.10;0.70;;;18.20;48.50;;;;;;4647204;30;20219;-86
2023/01/05 12:06:09;;;;;;;2.88;0.70;;;18.20;49.40;;;;;;4659181;30;20204;-85
2023/01/05 12:08:59;;;;;;;6.95;0.80;;;18.20;49.20;;;;;;4633878;30;20669;-85
2023/01/05 12:15:57;;;;;;;2.80;0.80;;;18.10;49.30;;;;;;4697062;30;20308;-86
2023/01/05 12:18:18;;;;;;;1.65;0.73;;;18.20;49.50;;;;;;4709746;30;20207;-86
2023/01/05 12:21:02;;;;;;;1.00;0.60;;;18.20;49.50;;;;;;4706292;30;20205;-85
2023/01/05 12:23:47;;;;;;;4.07;0.95;;;18.20;49.50;;;;;;4734540;30;20217;-86
2023/01/05 12:26:26;;;;;;;2.10;0.80;;;18.10;49.60;;;;;;4725662;30;20206;-85
2023/01/05 12:29:05;;;;;;;1.90;0.88;;;18.30;49.50;;;;;;4727929;30;20280;-84
2023/01/05 12:31:55;;;;;;;5.50;0.82;;;18.20;49.60;;;;;;4754767;30;20192;-85
2023/01/05 12:34:58;;;;;;;2.90;0.50;;;18.20;49.90;;;;;;4756644;30;20573;-85
2023/01/05 12:37:53;;;;;;;3.65;1.13;;;18.20;49.50;;;;;;4743323;30;20359;-85
2023/01/05 12:44:18;;;;;;;1.05;0.60;;;18.20;49.80;;;;;;4777606;29;20745;-82
2023/01/05 12:50:29;;;;;;;5.95;0.88;;;18.20;48.90;;;;;;4797515;29;20186;-84
2023/01/05 12:53:34;;;;;;;1.98;0.88;;;18.20;49.40;;;;;;4844471;29;20197;-84
2023/01/05 12:59:31;;;;;;;2.70;0.90;;;18.30;49.70;;;;;;4867043;29;20221;-85
2023/01/05 13:02:22;;;;;;;6.05;1.10;;;18.30;49.60;;;;;;4861732;29;20189;-84
2023/01/05 13:05:35;;;;;;;5.47;1.00;;;18.30;49.70;;;;;;4830619;29;20220;-83
2023/01/05 13:08:23;;;;;;;8.18;1.17;;;18.30;50.00;;;;;;4845750;29;20212;-84
2023/01/05 13:11:27;;;;;;;;;;;;;;;;;;;;;
2023/01/05 13:15:03;;;;;;;;;;;;;;;;;;;;;
2023/01/05 13:18:05;;;;;;;8.30;0.90;;;18.30;50.10;;;;;;4824661;29;20284;-83
2023/01/05 13:20:49;;;;;;;7.05;1.13;;;18.30;49.90;;;;;;4766632;30;20229;-83
2023/01/05 13:23:46;;;;;;;5.30;1.02;;;18.30;50.10;;;;;;4769152;30;20199;-83
2023/01/05 13:26:17;;;;;;;5.97;1.02;;;18.30;50.30;;;;;;4756377;30;20305;-85
2023/01/05 13:28:54;;;;;;;5.32;1.30;;;18.30;50.20;;;;;;4753180;30;20262;-84
2023/01/05 13:32:02;;;;;;;3.67;1.23;;;18.30;50.60;;;;;;4751118;30;20189;-82
2023/01/05 13:34:50;;;;;;;5.20;0.98;;;18.30;50.70;;;;;;4734791;30;20189;-84
2023/01/05 13:40:43;;;;;;;1.98;0.93;;;18.30;50.70;;;;;;4728273;30;20252;-85
2023/01/05 13:43:55;;;;;;;1.92;0.65;;;18.30;50.10;;;;;;4733228;30;20337;-83
2023/01/05 13:46:57;;;;;;;3.72;0.68;;;18.30;50.90;;;;;;4734115;30;20724;-85
2023/01/05 13:49:38;;;;;;;5.18;1.10;;;18.30;51.20;;;;;;4737659;30;20198;-85
2023/01/05 13:52:36;;;;;;;4.15;1.13;;;18.40;51.30;;;;;;4785206;29;20193;-85
2023/01/05 13:55:08;;;;;;;2.15;0.98;;;18.40;51.10;;;;;;4834955;29;20185;-85
2023/01/05 13:57:39;;;;;;;5.03;1.33;;;18.40;49.80;;;;;;4831234;29;20257;-84
2023/01/05 14:00:41;;;;;;;4.93;1.02;;;18.40;51.00;;;;;;4785830;30;20195;-85
2023/01/05 14:10:50;;;;;;;7.78;1.10;;;18.30;50.60;;;;;;4789390;30;20274;-84
2023/01/05 14:13:41;;;;;;;9.55;1.08;;;18.30;50.70;;;;;;4825802;29;20692;-82
2023/01/05 14:16:57;;;;;;;3.78;1.02;;;18.30;50.30;;;;;;4840595;29;20190;-83
2023/01/05 14:19:55;;;;;;;3.58;1.10;;;18.30;50.50;;;;;;4827026;29;20680;-84
2023/01/05 14:22:39;;;;;;;3.88;1.15;;;18.30;49.90;;;;;;4771545;30;20198;-85
2023/01/05 14:25:53;;;;;;;4.90;0.80;;;18.30;50.00;;;;;;4773244;30;20687;-84
2023/01/05 14:28:44;;;;;;;3.78;0.90;;;18.30;50.30;;;;;;4764680;30;20235;-84
2023/01/05 14:31:49;;;;;;;7.97;1.20;;;18.30;50.60;;;;;;4784746;30;20297;-84
2023/01/05 14:34:18;;;;;;;1.95;0.90;;;18.30;49.60;;;;;;4748053;30;20200;-85
2023/01/05 14:37:17;;;;;;;9.90;1.35;;;18.30;49.70;;;;;;4755525;30;20195;-84
2023/01/05 14:39:51;;;;;;;4.25;0.93;;;18.30;50.30;;;;;;4737839;30;20195;-84
2023/01/05 14:46:24;;;;;;;6.72;1.40;;;18.30;49.20;;;;;;4738122;30;20197;-84
2023/01/05 14:56:27;;;;;;;7.53;1.13;;;18.30;49.70;;;;;;4732109;30;20244;-83
2023/01/05 14:59:18;;;;;;;3.53;0.98;;;18.40;49.80;;;;;;4713029;30;20206;-84
2023/01/05 15:01:51;;;;;;;11.35;1.70;;;18.40;49.60;;;;;;4754662;29;20292;-84
2023/01/05 15:11:47;;;;;;;9.23;1.35;;;18.40;49.70;;;;;;4869635;29;20173;-85